Time;durP1;ratioP1;P1;durP2;ratioP2;P2;SDS_P1;SDS_P2;PMS_P1;PMS_P2;Temp;Humidity;BMP_temperature;BMP_pressure;BME280_temperature;BME280_humidity;BME280_pressure;Samples;Min_cycle;Max_cycle;Signal;HPM_P1;HPM_P2
2021/07/18 00:00:55;;;;;;;4.13;1.90;;;19.00;99.90;;;;;;5070436;28;20032;-78
2021/07/18 00:03:22;;;;;;;3.92;2.00;;;19.00;99.90;;;;;;5069073;28;20081;-82
2021/07/18 00:05:49;;;;;;;4.35;2.17;;;18.90;99.90;;;;;;5070267;28;20029;-80
2021/07/18 00:08:16;;;;;;;5.03;2.92;;;19.00;99.90;;;;;;5069414;28;20025;-81
2021/07/18 00:10:42;;;;;;;3.67;2.40;;;19.00;99.90;;;;;;5069243;28;20283;-81
2021/07/18 00:13:07;;;;;;;3.05;2.00;;;18.90;99.90;;;;;;5086955;28;20074;-80
2021/07/18 00:15:33;;;;;;;4.70;2.15;;;18.90;99.90;;;;;;5071758;28;20127;-80
2021/07/18 00:18:00;;;;;;;5.95;2.55;;;18.80;99.90;;;;;;5090528;28;20054;-81
2021/07/18 00:20:26;;;;;;;4.47;2.42;;;18.80;99.90;;;;;;5090556;28;20016;-81
2021/07/18 00:22:53;;;;;;;3.63;2.40;;;18.80;99.90;;;;;;5090581;28;20020;-80
2021/07/18 00:25:25;;;;;;;4.93;2.90;;;18.80;99.90;;;;;;5071357;28;20136;-80
2021/07/18 00:27:50;;;;;;;4.00;2.42;;;18.70;99.90;;;;;;5071730;28;20456;-81
2021/07/18 00:30:23;;;;;;;3.85;2.50;;;18.70;99.90;;;;;;5071933;28;20052;-81
2021/07/18 00:32:49;;;;;;;5.53;2.85;;;18.70;99.90;;;;;;5071429;28;20028;-81
2021/07/18 00:35:14;;;;;;;5.57;2.55;;;18.60;99.90;;;;;;5071191;28;20101;-81
2021/07/18 00:37:40;;;;;;;5.88;3.35;;;18.60;99.90;;;;;;5071888;28;20539;-80
2021/07/18 00:40:08;;;;;;;4.05;2.33;;;18.50;99.90;;;;;;5071830;28;20111;-81
2021/07/18 00:42:36;;;;;;;4.57;2.55;;;18.50;99.90;;;;;;5089511;28;20507;-81
2021/07/18 00:45:05;;;;;;;7.57;3.65;;;18.50;99.90;;;;;;5090128;28;20471;-81
2021/07/18 00:47:31;;;;;;;4.32;2.83;;;18.60;99.90;;;;;;5034605;28;20039;-81
2021/07/18 00:49:57;;;;;;;5.10;2.80;;;18.50;99.90;;;;;;5089371;28;20454;-80
2021/07/18 00:52:22;;;;;;;3.92;3.10;;;18.60;99.90;;;;;;5071360;28;20036;-80
2021/07/18 00:54:50;;;;;;;4.80;3.00;;;18.60;99.90;;;;;;5089934;28;20115;-81
2021/07/18 00:57:16;;;;;;;5.55;3.00;;;18.60;99.90;;;;;;5070945;28;20082;-81
2021/07/18 00:59:48;;;;;;;6.68;3.80;;;18.60;99.90;;;;;;5070665;28;20047;-80
2021/07/18 01:02:13;;;;;;;7.50;3.45;;;18.70;99.90;;;;;;5089868;28;20477;-81
2021/07/18 01:04:45;;;;;;;4.75;3.10;;;18.60;99.90;;;;;;5090005;28;20020;-82
2021/07/18 01:07:11;;;;;;;5.45;3.15;;;18.70;99.90;;;;;;5089569;28;20054;-82
2021/07/18 01:09:38;;;;;;;4.45;2.90;;;18.70;99.90;;;;;;5089914;28;20472;-81
2021/07/18 01:12:04;;;;;;;8.07;4.00;;;18.70;99.90;;;;;;5073742;28;20063;-81
2021/07/18 01:14:32;;;;;;;5.88;3.97;;;18.80;99.90;;;;;;5071609;28;20092;-81
2021/07/18 01:16:59;;;;;;;7.80;3.63;;;18.80;99.90;;;;;;5091681;28;20028;-80
2021/07/18 01:19:27;;;;;;;5.30;3.42;;;18.90;99.90;;;;;;5096459;28;20073;-80
2021/07/18 01:22:02;;;;;;;6.75;3.92;;;18.90;99.90;;;;;;5081890;28;20063;-79
2021/07/18 01:24:30;;;;;;;7.63;4.70;;;18.90;99.90;;;;;;5081020;28;20036;-81
2021/07/18 01:26:58;;;;;;;6.05;4.05;;;18.80;99.90;;;;;;5075083;28;20020;-81
2021/07/18 01:29:25;;;;;;;6.15;3.85;;;18.80;99.90;;;;;;5075242;28;20024;-81
2021/07/18 01:31:52;;;;;;;8.95;3.85;;;18.80;99.90;;;;;;5093864;28;20038;-80
2021/07/18 01:34:18;;;;;;;6.05;4.15;;;18.80;99.90;;;;;;5052999;28;20349;-81
2021/07/18 01:36:44;;;;;;;10.07;4.47;;;18.80;99.90;;;;;;5075450;28;20024;-81
2021/07/18 01:39:11;;;;;;;9.20;4.35;;;18.80;99.90;;;;;;5078234;28;20024;-83
2021/07/18 01:41:40;;;;;;;8.57;4.18;;;18.80;99.90;;;;;;5099334;28;20078;-81
2021/07/18 01:44:11;;;;;;;8.18;4.53;;;18.90;99.90;;;;;;5094519;28;20024;-81
2021/07/18 01:46:37;;;;;;;10.20;5.40;;;18.90;99.90;;;;;;5086376;28;20024;-81
2021/07/18 01:49:08;;;;;;;14.90;5.68;;;18.90;99.90;;;;;;5061708;28;20032;-81
2021/07/18 01:51:35;;;;;;;11.40;5.72;;;18.90;99.90;;;;;;5094294;28;20118;-82
2021/07/18 01:54:03;;;;;;;11.27;5.95;;;18.80;99.90;;;;;;5076042;28;20024;-82
2021/07/18 01:56:30;;;;;;;7.30;5.40;;;18.80;99.90;;;;;;5076421;28;20490;-82
2021/07/18 01:58:57;;;;;;;7.93;5.40;;;18.80;99.90;;;;;;5094504;28;20032;-80
2021/07/18 02:01:29;;;;;;;10.95;5.85;;;18.80;99.90;;;;;;5076246;28;20032;-80
2021/07/18 02:03:56;;;;;;;10.57;5.93;;;18.80;99.90;;;;;;5076797;28;20024;-80
2021/07/18 02:06:25;;;;;;;10.98;6.00;;;18.80;99.90;;;;;;5074954;28;20074;-81
2021/07/18 02:08:53;;;;;;;10.02;6.18;;;18.80;99.90;;;;;;5094708;28;20024;-81
2021/07/18 02:11:21;;;;;;;8.35;5.68;;;18.70;99.90;;;;;;5076217;28;20519;-80
2021/07/18 02:13:53;;;;;;;7.72;5.78;;;18.80;99.90;;;;;;5077365;28;20043;-81
2021/07/18 02:16:20;;;;;;;6.80;4.57;;;18.80;99.90;;;;;;5076423;28;20016;-80
2021/07/18 02:18:47;;;;;;;12.18;5.53;;;18.80;99.90;;;;;;5076467;28;20074;-80
2021/07/18 02:21:13;;;;;;;12.40;5.72;;;18.70;99.90;;;;;;5076340;28;20080;-81
2021/07/18 02:23:40;;;;;;;7.68;5.50;;;18.70;99.90;;;;;;5076737;28;20021;-81
2021/07/18 02:26:07;;;;;;;7.43;5.20;;;18.70;99.90;;;;;;5076768;28;20048;-81
2021/07/18 02:28:33;;;;;;;10.98;5.70;;;18.70;99.90;;;;;;5094452;28;20039;-82
2021/07/18 02:31:03;;;;;;;7.53;5.78;;;18.70;99.90;;;;;;5094321;28;20035;-83
2021/07/18 02:33:29;;;;;;;7.85;5.63;;;18.70;99.90;;;;;;5076360;28;20020;-81
2021/07/18 02:35:55;;;;;;;8.63;5.93;;;18.70;99.90;;;;;;5059558;28;20372;-82
2021/07/18 02:38:20;;;;;;;7.53;5.22;;;18.60;99.90;;;;;;5094556;28;20066;-82
2021/07/18 02:40:50;;;;;;;6.95;5.25;;;18.60;99.90;;;;;;5094210;28;20020;-83
2021/07/18 02:43:15;;;;;;;7.57;4.90;;;18.60;99.90;;;;;;5076072;28;20028;-82
2021/07/18 02:45:42;;;;;;;7.53;5.10;;;18.60;99.90;;;;;;5076087;28;20033;-81
2021/07/18 02:48:08;;;;;;;7.43;5.22;;;18.50;99.90;;;;;;5076160;28;20421;-83
2021/07/18 02:50:41;;;;;;;9.95;5.85;;;18.60;99.90;;;;;;5059471;28;20043;-82
2021/07/18 02:53:09;;;;;;;8.68;5.55;;;18.60;99.90;;;;;;5076071;28;20476;-82
2021/07/18 02:55:34;;;;;;;7.82;4.88;;;18.50;99.90;;;;;;5059151;28;20047;-83
2021/07/18 02:58:00;;;;;;;5.82;4.10;;;18.50;99.90;;;;;;5077330;28;20464;-81
2021/07/18 03:00:26;;;;;;;9.15;4.72;;;18.50;99.90;;;;;;5079919;28;20023;-82
2021/07/18 03:02:52;;;;;;;6.55;4.50;;;18.50;99.90;;;;;;5079856;28;20028;-81
2021/07/18 03:05:18;;;;;;;6.35;4.18;;;18.50;99.90;;;;;;5078587;28;20028;-81
2021/07/18 03:07:45;;;;;;;7.45;5.00;;;18.50;99.90;;;;;;5079829;28;20497;-82
2021/07/18 03:10:12;;;;;;;7.63;4.65;;;18.50;99.90;;;;;;5097569;28;20036;-80
2021/07/18 03:12:39;;;;;;;7.38;4.30;;;18.50;99.90;;;;;;5097343;28;20060;-81
2021/07/18 03:15:07;;;;;;;6.45;4.40;;;18.50;99.90;;;;;;5079364;28;20115;-81
2021/07/18 03:17:32;;;;;;;6.90;4.50;;;18.50;99.90;;;;;;5079232;28;20020;-81
2021/07/18 03:20:04;;;;;;;9.52;4.65;;;18.50;99.90;;;;;;5062942;28;20353;-81
2021/07/18 03:22:32;;;;;;;8.00;5.38;;;18.50;99.90;;;;;;5079537;28;20052;-80
2021/07/18 03:24:58;;;;;;;6.97;5.00;;;18.50;99.90;;;;;;5079750;28;20506;-82
2021/07/18 03:27:25;;;;;;;8.52;5.97;;;18.50;99.90;;;;;;5097687;28;20031;-81
2021/07/18 03:29:52;;;;;;;7.28;4.90;;;18.40;99.90;;;;;;5064801;28;20039;-81
2021/07/18 03:32:18;;;;;;;8.68;5.00;;;18.40;99.90;;;;;;5119540;28;20066;-81
2021/07/18 03:34:45;;;;;;;6.68;4.40;;;18.40;99.90;;;;;;5100010;28;20344;-81
2021/07/18 03:37:14;;;;;;;8.00;5.10;;;18.50;99.90;;;;;;5097835;28;20020;-81
2021/07/18 03:39:40;;;;;;;6.55;5.03;;;18.50;99.90;;;;;;5078767;28;20024;-81
2021/07/18 03:42:06;;;;;;;7.97;5.63;;;18.50;99.90;;;;;;5078838;28;20035;-82
2021/07/18 03:44:31;;;;;;;9.63;6.38;;;18.50;99.90;;;;;;5061267;28;20062;-81
2021/07/18 03:46:57;;;;;;;11.80;7.30;;;18.50;99.90;;;;;;5079175;28;20520;-82
2021/07/18 03:49:22;;;;;;;11.10;7.18;;;18.30;99.90;;;;;;5079263;28;20269;-82
2021/07/18 03:51:48;;;;;;;11.20;7.07;;;18.20;99.90;;;;;;5097827;28;20111;-82
2021/07/18 03:54:15;;;;;;;10.98;6.38;;;18.20;99.90;;;;;;5098056;28;20526;-82
2021/07/18 03:56:40;;;;;;;12.00;6.95;;;18.10;99.90;;;;;;5102872;28;20094;-81
2021/07/18 03:59:09;;;;;;;10.68;6.15;;;18.20;99.90;;;;;;5096809;28;20486;-81
2021/07/18 04:01:36;;;;;;;9.25;5.93;;;18.10;99.90;;;;;;5079215;28;20115;-81
2021/07/18 04:04:01;;;;;;;8.70;6.00;;;18.10;99.90;;;;;;5061828;28;20056;-82
2021/07/18 04:06:31;;;;;;;10.02;6.75;;;18.10;99.90;;;;;;5078847;28;20031;-81
2021/07/18 04:08:56;;;;;;;9.70;5.25;;;18.10;99.90;;;;;;5062621;28;20027;-82
2021/07/18 04:11:22;;;;;;;7.55;4.70;;;18.10;99.90;;;;;;5077372;28;20491;-82
2021/07/18 04:13:48;;;;;;;9.63;5.88;;;18.10;99.90;;;;;;5079051;28;20028;-81
2021/07/18 04:16:14;;;;;;;9.55;5.47;;;18.20;99.90;;;;;;5096413;28;20024;-81
2021/07/18 04:18:39;;;;;;;7.65;5.60;;;18.20;99.90;;;;;;5078307;28;20035;-81
2021/07/18 04:21:05;;;;;;;10.32;5.65;;;18.20;99.90;;;;;;5078702;28;20031;-80
2021/07/18 04:23:30;;;;;;;9.98;5.45;;;18.20;99.90;;;;;;5061420;28;20024;-79
2021/07/18 04:25:56;;;;;;;8.63;5.35;;;18.20;99.90;;;;;;5096483;28;20099;-81
2021/07/18 04:28:22;;;;;;;8.63;4.97;;;18.20;99.90;;;;;;5097243;28;20028;-81
2021/07/18 04:30:48;;;;;;;10.57;6.00;;;18.30;99.90;;;;;;5079127;28;20046;-82
2021/07/18 04:33:17;;;;;;;7.15;5.32;;;18.20;99.90;;;;;;5061873;28;20028;-82
2021/07/18 04:35:44;;;;;;;7.53;5.28;;;18.10;99.90;;;;;;5079044;28;20031;-82
2021/07/18 04:38:11;;;;;;;7.15;4.25;;;18.10;99.90;;;;;;5078663;28;20028;-82
2021/07/18 04:40:37;;;;;;;8.77;5.25;;;18.10;99.90;;;;;;5061017;28;20150;-82
2021/07/18 04:43:03;;;;;;;8.43;5.05;;;18.10;99.90;;;;;;5096872;28;20024;-82
2021/07/18 04:45:29;;;;;;;7.95;4.78;;;18.10;99.90;;;;;;5096494;28;20526;-82
2021/07/18 04:48:01;;;;;;;6.47;4.25;;;18.00;99.90;;;;;;5077874;28;20032;-80
2021/07/18 04:50:27;;;;;;;6.90;4.55;;;18.10;99.90;;;;;;5097151;28;20028;-80
2021/07/18 04:52:53;;;;;;;5.72;3.85;;;18.10;99.90;;;;;;5078468;28;20222;-82
2021/07/18 04:55:20;;;;;;;6.03;4.25;;;18.00;99.90;;;;;;5078211;28;20036;-82
2021/07/18 04:57:45;;;;;;;6.55;4.35;;;17.90;99.90;;;;;;5061394;28;20493;-82
2021/07/18 05:00:16;;;;;;;6.50;4.40;;;17.90;99.90;;;;;;5078003;28;20021;-82
2021/07/18 05:02:44;;;;;;;5.90;4.20;;;17.90;99.90;;;;;;5097279;28;20030;-81
2021/07/18 05:05:14;;;;;;;5.78;3.83;;;17.90;99.90;;;;;;5095970;28;20032;-81
2021/07/18 05:07:59;;;;;;;4.10;3.03;;;17.90;99.90;;;;;;5077710;28;20020;-82
2021/07/18 05:10:29;;;;;;;5.72;3.80;;;17.90;99.90;;;;;;5077883;28;20023;-81
2021/07/18 05:12:56;;;;;;;5.55;3.80;;;17.90;99.90;;;;;;5074718;28;20161;-82
2021/07/18 05:15:25;;;;;;;4.53;3.40;;;17.90;99.90;;;;;;5074536;28;20043;-81
2021/07/18 05:17:55;;;;;;;4.70;3.00;;;18.00;99.90;;;;;;5076658;28;20031;-80
2021/07/18 05:20:22;;;;;;;6.03;3.85;;;18.10;99.90;;;;;;5073102;28;20054;-79
2021/07/18 05:22:49;;;;;;;4.78;3.00;;;18.10;99.90;;;;;;5084785;28;20104;-79
2021/07/18 05:25:15;;;;;;;5.28;3.47;;;18.10;99.90;;;;;;5075539;28;20028;-78
2021/07/18 05:27:41;;;;;;;5.43;3.55;;;18.20;99.90;;;;;;5076713;28;20024;-80
2021/07/18 05:30:09;;;;;;;5.22;3.05;;;18.30;99.90;;;;;;5076551;28;20035;-80
2021/07/18 05:32:39;;;;;;;4.78;3.38;;;18.30;99.90;;;;;;5058926;28;20094;-81
2021/07/18 05:35:08;;;;;;;4.38;3.08;;;18.30;99.90;;;;;;5074924;28;20125;-80
2021/07/18 05:37:39;;;;;;;5.03;3.58;;;18.30;99.90;;;;;;5057252;28;20039;-81
2021/07/18 05:40:06;;;;;;;3.95;2.92;;;18.30;99.90;;;;;;5074997;28;20031;-81
2021/07/18 05:42:33;;;;;;;3.72;2.92;;;18.40;99.90;;;;;;5075064;28;20028;-82
2021/07/18 05:44:59;;;;;;;4.50;3.33;;;18.50;99.90;;;;;;5073797;28;20092;-81
2021/07/18 05:47:25;;;;;;;4.45;2.90;;;18.50;99.90;;;;;;5073988;28;20067;-81
2021/07/18 05:49:52;;;;;;;4.25;2.75;;;18.60;99.90;;;;;;5074566;28;20028;-81
2021/07/18 05:52:19;;;;;;;3.33;2.55;;;18.60;99.90;;;;;;5076340;28;20032;-80
2021/07/18 05:54:49;;;;;;;3.55;2.55;;;18.70;99.90;;;;;;5073031;28;20425;-80
2021/07/18 05:57:15;;;;;;;2.83;2.25;;;18.80;99.90;;;;;;5074022;28;20025;-82
2021/07/18 05:59:41;;;;;;;3.42;2.33;;;18.90;99.90;;;;;;5076013;28;20024;-81
2021/07/18 06:02:09;;;;;;;4.47;2.33;;;19.00;99.90;;;;;;5075118;28;20067;-81
2021/07/18 06:04:35;;;;;;;4.00;2.85;;;19.10;99.90;;;;;;5075172;28;20036;-81
2021/07/18 06:07:01;;;;;;;3.72;2.58;;;19.10;99.90;;;;;;5074959;28;20422;-80
2021/07/18 06:09:31;;;;;;;3.47;2.42;;;19.10;99.90;;;;;;5074888;28;20064;-81
2021/07/18 06:11:56;;;;;;;3.83;2.50;;;19.10;99.90;;;;;;5081350;28;20135;-81
2021/07/18 06:14:22;;;;;;;3.42;2.22;;;19.20;99.90;;;;;;5078162;28;20039;-81
2021/07/18 06:16:55;;;;;;;4.15;2.97;;;19.20;99.90;;;;;;5060891;28;20391;-80
2021/07/18 06:19:23;;;;;;;3.75;2.50;;;19.30;99.90;;;;;;5078021;28;20487;-81
2021/07/18 06:21:51;;;;;;;3.35;2.40;;;19.30;99.90;;;;;;5095220;28;20054;-80
2021/07/18 06:24:19;;;;;;;3.53;2.55;;;19.30;99.90;;;;;;5061266;28;20118;-80
2021/07/18 06:26:48;;;;;;;3.95;2.55;;;19.40;99.90;;;;;;5078368;28;20028;-80
2021/07/18 06:29:16;;;;;;;4.22;2.20;;;19.40;99.90;;;;;;5079197;28;20028;-80
2021/07/18 06:31:42;;;;;;;3.60;1.60;;;19.40;99.90;;;;;;5099285;28;20028;-80
2021/07/18 06:34:08;;;;;;;2.80;1.90;;;19.50;99.90;;;;;;5102678;28;20020;-80
2021/07/18 06:36:34;;;;;;;3.58;1.90;;;19.50;99.90;;;;;;5081736;28;20047;-82
2021/07/18 06:39:01;;;;;;;3.33;1.73;;;19.60;99.90;;;;;;5063926;28;20031;-80
2021/07/18 06:41:28;;;;;;;3.28;1.85;;;19.60;99.90;;;;;;5080012;28;20060;-80
2021/07/18 06:43:55;;;;;;;1.98;1.42;;;19.70;99.90;;;;;;5098010;28;20030;-81
2021/07/18 06:46:20;;;;;;;2.58;1.80;;;19.70;99.90;;;;;;5079940;28;20020;-80
2021/07/18 06:48:49;;;;;;;3.90;2.17;;;19.80;99.90;;;;;;5079896;28;20073;-80
2021/07/18 06:51:19;;;;;;;2.95;2.05;;;19.80;99.90;;;;;;5098017;28;20058;-82
2021/07/18 06:53:46;;;;;;;3.05;1.80;;;19.90;99.90;;;;;;5080195;28;20044;-81
2021/07/18 06:56:11;;;;;;;2.55;1.77;;;20.00;99.90;;;;;;5080210;28;20067;-80
2021/07/18 06:58:38;;;;;;;2.78;1.60;;;20.00;99.90;;;;;;5081033;28;20027;-80
2021/07/18 07:01:05;;;;;;;3.85;2.05;;;20.00;99.90;;;;;;5098445;28;20043;-81
2021/07/18 07:03:30;;;;;;;1.88;1.40;;;20.10;99.90;;;;;;5064451;28;20028;-81
2021/07/18 07:06:02;;;;;;;2.38;1.65;;;20.10;99.90;;;;;;5101009;28;20035;-83
2021/07/18 07:08:29;;;;;;;3.17;1.80;;;20.20;99.90;;;;;;5108277;28;20016;-80
2021/07/18 07:10:55;;;;;;;2.53;1.58;;;20.20;99.90;;;;;;5096412;28;20110;-81
2021/07/18 07:13:23;;;;;;;2.60;1.70;;;20.20;99.90;;;;;;5098685;28;20051;-82
2021/07/18 07:15:48;;;;;;;2.75;1.70;;;20.30;99.90;;;;;;5098614;28;20016;-81
2021/07/18 07:18:14;;;;;;;2.60;1.75;;;20.30;99.90;;;;;;5080981;28;20120;-81
2021/07/18 07:20:47;;;;;;;1.98;1.60;;;20.40;99.90;;;;;;5098316;28;20036;-82
2021/07/18 07:23:13;;;;;;;3.30;1.58;;;20.50;99.90;;;;;;5079958;28;20032;-83
2021/07/18 07:25:43;;;;;;;1.60;1.30;;;20.50;99.90;;;;;;5081164;28;20028;-81
2021/07/18 07:28:13;;;;;;;2.50;1.35;;;20.50;99.90;;;;;;5099099;28;20505;-81
2021/07/18 07:30:39;;;;;;;1.85;1.35;;;20.60;99.90;;;;;;5080694;28;20498;-82
2021/07/18 07:33:04;;;;;;;2.60;1.23;;;20.60;99.90;;;;;;5081421;28;20039;-82
2021/07/18 07:35:30;;;;;;;1.90;1.45;;;20.70;99.90;;;;;;5099757;28;20028;-82
2021/07/18 07:37:56;;;;;;;2.17;1.35;;;20.80;99.90;;;;;;5064141;28;20028;-81
2021/07/18 07:40:21;;;;;;;3.22;1.88;;;20.90;99.90;;;;;;5079776;28;20028;-80
2021/07/18 07:42:48;;;;;;;2.28;1.40;;;20.90;99.90;;;;;;5080286;28;20153;-80
2021/07/18 07:45:15;;;;;;;2.47;1.60;;;21.00;99.90;;;;;;5079298;28;20024;-82
2021/07/18 07:47:43;;;;;;;3.00;1.67;;;21.00;99.90;;;;;;5078478;28;20565;-81
2021/07/18 07:50:12;;;;;;;2.65;1.60;;;21.10;99.90;;;;;;5077918;28;20115;-82
2021/07/18 07:52:38;;;;;;;3.38;1.80;;;21.10;99.90;;;;;;5075989;28;20044;-82
2021/07/18 07:55:06;;;;;;;2.40;1.30;;;21.10;99.90;;;;;;5094543;28;20349;-82
2021/07/18 07:57:33;;;;;;;2.80;1.60;;;21.20;99.90;;;;;;5076805;28;20418;-81
2021/07/18 08:00:00;;;;;;;2.38;1.30;;;21.30;99.90;;;;;;5077087;28;20072;-81
2021/07/18 08:02:28;;;;;;;2.20;1.35;;;21.40;99.90;;;;;;5095479;28;20049;-81
2021/07/18 08:04:54;;;;;;;2.30;1.48;;;21.50;99.90;;;;;;5077056;28;20032;-82
2021/07/18 08:07:19;;;;;;;3.10;1.70;;;21.60;99.90;;;;;;5077466;28;20460;-79
2021/07/18 08:09:48;;;;;;;3.05;1.65;;;21.70;99.90;;;;;;5077247;28;20028;-82
2021/07/18 08:12:14;;;;;;;2.15;1.63;;;21.70;99.90;;;;;;5073689;28;20059;-81
2021/07/18 08:14:39;;;;;;;3.65;1.90;;;21.80;99.90;;;;;;5074599;28;20032;-81
2021/07/18 08:17:13;;;;;;;3.17;1.95;;;21.80;99.90;;;;;;5075377;28;20476;-81
2021/07/18 08:19:40;;;;;;;2.75;1.50;;;22.00;99.90;;;;;;5075570;28;20031;-82
2021/07/18 08:22:07;;;;;;;3.65;1.70;;;22.00;99.90;;;;;;5075021;28;20060;-82
2021/07/18 08:24:33;;;;;;;3.28;1.50;;;22.10;99.90;;;;;;5073327;28;20084;-81
2021/07/18 08:26:59;;;;;;;2.88;1.75;;;22.20;99.90;;;;;;5074993;28;20055;-81
2021/07/18 08:29:26;;;;;;;2.13;1.55;;;22.30;99.90;;;;;;5074601;28;20032;-82
2021/07/18 08:31:58;;;;;;;2.38;1.50;;;22.40;99.90;;;;;;5073684;28;20032;-82
2021/07/18 08:34:28;;;;;;;4.00;1.50;;;22.50;99.90;;;;;;5074279;28;20041;-81
2021/07/18 08:36:57;;;;;;;3.05;1.75;;;22.60;99.90;;;;;;5072540;28;20206;-80
2021/07/18 08:39:23;;;;;;;4.60;2.13;;;22.70;99.90;;;;;;5068869;28;20055;-80
2021/07/18 08:41:53;;;;;;;3.22;1.92;;;22.80;99.90;;;;;;5073769;28;20061;-82
2021/07/18 08:44:20;;;;;;;2.67;1.95;;;22.90;99.90;;;;;;5072127;28;20020;-82
2021/07/18 08:46:50;;;;;;;3.08;1.70;;;23.00;99.90;;;;;;5073179;28;20031;-82
2021/07/18 08:49:15;;;;;;;5.25;1.90;;;23.10;99.90;;;;;;5072879;28;20128;-82
2021/07/18 08:51:42;;;;;;;5.20;1.95;;;23.10;99.90;;;;;;5073669;28;20064;-82
2021/07/18 08:54:09;;;;;;;4.05;1.90;;;23.20;99.90;;;;;;5073174;28;20020;-83
2021/07/18 08:56:36;;;;;;;5.05;1.90;;;23.30;99.90;;;;;;5078959;28;20500;-81
2021/07/18 08:59:11;;;;;;;3.92;1.65;;;23.40;99.90;;;;;;5070570;28;20031;-82
2021/07/18 09:01:43;;;;;;;2.38;1.50;;;23.40;99.90;;;;;;5073461;28;20032;-83
2021/07/18 09:04:09;;;;;;;4.00;1.70;;;23.50;99.90;;;;;;5071162;28;20047;-82
2021/07/18 09:06:50;;;;;;;3.92;1.90;;;23.50;99.90;;;;;;5073021;28;20035;-81
2021/07/18 09:09:17;;;;;;;2.78;1.70;;;23.70;99.90;;;;;;5072500;28;20020;-82
2021/07/18 09:11:57;;;;;;;4.22;1.95;;;23.70;99.90;;;;;;5076479;28;20029;-83
2021/07/18 09:14:23;;;;;;;4.47;2.35;;;23.80;99.90;;;;;;5059392;28;20551;-82
2021/07/18 09:16:51;;;;;;;4.53;1.83;;;23.90;99.90;;;;;;5075890;28;20115;-82
2021/07/18 09:19:18;;;;;;;3.95;2.20;;;24.00;99.90;;;;;;5085004;28;20056;-79
2021/07/18 09:22:07;;;;;;;5.03;2.03;;;24.00;99.90;;;;;;5055210;28;20033;-82
2021/07/18 09:24:57;;;;;;;4.32;1.90;;;24.00;99.90;;;;;;5055595;28;20447;-81
2021/07/18 09:27:31;;;;;;;3.50;1.52;;;24.20;99.90;;;;;;5039419;28;20074;-82
2021/07/18 09:30:11;;;;;;;3.33;1.70;;;24.20;99.90;;;;;;5073264;28;20036;-81
2021/07/18 09:32:41;;;;;;;2.50;1.77;;;24.30;99.90;;;;;;5055258;28;20020;-83
2021/07/18 09:35:10;;;;;;;3.88;2.00;;;24.40;99.90;;;;;;5038789;28;20040;-82
2021/07/18 09:37:38;;;;;;;2.25;1.70;;;24.60;99.90;;;;;;5075680;28;20024;-82
2021/07/18 09:40:08;;;;;;;3.55;1.88;;;24.80;99.90;;;;;;5092865;28;20062;-82
2021/07/18 09:42:47;;;;;;;3.42;1.70;;;25.70;99.90;;;;;;5091945;28;20032;-82
2021/07/18 09:45:13;;;;;;;3.95;1.50;;;26.80;99.90;;;;;;5074038;28;20032;-82
2021/07/18 09:48:08;;;;;;;3.80;1.48;;;27.70;99.90;;;;;;5074797;28;20020;-82
2021/07/18 09:50:42;;;;;;;2.88;1.60;;;28.70;99.90;;;;;;5070320;28;20480;-83
2021/07/18 09:53:16;;;;;;;3.03;1.65;;;29.50;99.90;;;;;;5074356;28;20090;-83
2021/07/18 09:56:22;;;;;;;2.40;1.40;;;30.10;99.90;;;;;;5075536;28;20050;-83
2021/07/18 09:58:53;;;;;;;2.85;1.30;;;30.50;99.90;;;;;;5074594;28;20024;-83
2021/07/18 10:01:19;;;;;;;3.58;1.42;;;30.90;99.80;;;;;;5092550;28;20480;-82
2021/07/18 10:03:46;;;;;;;3.55;1.50;;;31.10;98.10;;;;;;5074529;28;20096;-81
2021/07/18 10:06:21;;;;;;;4.20;1.33;;;31.30;97.40;;;;;;5093001;28;20069;-84
2021/07/18 10:08:56;;;;;;;4.97;1.30;;;31.60;97.20;;;;;;5102296;28;20028;-82
2021/07/18 10:11:27;;;;;;;1.60;1.30;;;31.90;95.20;;;;;;5093371;28;20097;-82
2021/07/18 10:13:56;;;;;;;1.75;1.08;;;32.10;95.20;;;;;;5074241;28;20115;-83
2021/07/18 10:16:24;;;;;;;3.70;1.42;;;32.30;94.20;;;;;;5072667;28;20131;-81
2021/07/18 10:18:56;;;;;;;2.75;1.50;;;32.40;92.20;;;;;;5060386;28;20092;-80
2021/07/18 10:21:27;;;;;;;1.58;1.20;;;32.20;91.30;;;;;;5054869;28;20033;-82
2021/07/18 10:23:58;;;;;;;2.25;1.30;;;32.30;91.10;;;;;;5083096;28;20558;-82
2021/07/18 10:26:35;;;;;;;2.63;1.45;;;32.70;91.00;;;;;;5055706;28;20078;-82
2021/07/18 10:29:04;;;;;;;2.45;1.23;;;33.20;90.10;;;;;;5052210;28;20025;-82
2021/07/18 10:31:35;;;;;;;2.08;1.40;;;33.30;86.40;;;;;;5068661;28;20024;-82
2021/07/18 10:34:08;;;;;;;2.80;1.50;;;33.30;85.00;;;;;;5073852;28;20107;-83
2021/07/18 10:36:37;;;;;;;2.30;1.20;;;33.30;85.10;;;;;;5074449;28;20262;-82
2021/07/18 10:39:28;;;;;;;3.33;1.33;;;33.60;84.00;;;;;;5074420;28;20057;-81
2021/07/18 10:41:54;;;;;;;2.83;1.20;;;33.70;82.00;;;;;;5076635;28;20037;-83
2021/07/18 10:44:23;;;;;;;1.80;1.00;;;34.00;82.10;;;;;;5059475;28;20020;-82
2021/07/18 10:46:56;;;;;;;1.15;0.90;;;34.20;82.10;;;;;;5073833;28;20020;-81
2021/07/18 10:49:47;;;;;;;2.30;1.13;;;34.60;81.70;;;;;;5058249;28;20031;-83
2021/07/18 10:52:14;;;;;;;2.20;1.40;;;34.80;79.40;;;;;;5073795;28;20036;-82
2021/07/18 10:54:42;;;;;;;3.85;1.33;;;34.40;78.10;;;;;;5054518;28;20066;-83
2021/07/18 10:57:28;;;;;;;2.05;1.20;;;34.30;77.30;;;;;;5092988;28;20173;-83
2021/07/18 11:00:18;;;;;;;1.60;1.13;;;34.30;76.40;;;;;;5075136;28;20028;-82
2021/07/18 11:02:46;;;;;;;2.78;1.20;;;34.40;76.80;;;;;;5076315;28;20043;-83
2021/07/18 11:05:18;;;;;;;1.80;1.20;;;34.40;76.90;;;;;;5089747;28;20089;-82
2021/07/18 11:07:55;;;;;;;2.92;1.30;;;34.70;77.30;;;;;;5075088;28;20028;-83
2021/07/18 11:10:24;;;;;;;1.85;1.30;;;34.80;76.70;;;;;;5076095;28;20408;-81
2021/07/18 11:13:02;;;;;;;2.17;1.25;;;34.80;75.90;;;;;;5075917;28;20253;-80
2021/07/18 11:15:42;;;;;;;1.83;1.30;;;34.90;75.80;;;;;;5074208;28;20039;-82
2021/07/18 11:18:18;;;;;;;1.65;1.20;;;35.10;75.70;;;;;;5075028;28;20395;-82
2021/07/18 11:20:54;;;;;;;1.77;1.30;;;35.40;74.70;;;;;;5097697;28;20020;-83
2021/07/18 11:23:42;;;;;;;2.22;1.67;;;35.60;73.70;;;;;;5098391;28;20035;-82
2021/07/18 11:26:15;;;;;;;2.75;1.50;;;35.50;71.80;;;;;;5063237;28;20094;-82
2021/07/18 11:28:49;;;;;;;3.47;1.27;;;35.40;72.50;;;;;;5096115;28;20016;-82
2021/07/18 11:31:24;;;;;;;2.60;1.40;;;35.50;72.50;;;;;;5095636;28;20028;-82
2021/07/18 11:34:16;;;;;;;2.72;1.65;;;35.60;71.40;;;;;;5097210;28;20085;-83
2021/07/18 11:36:43;;;;;;;1.95;1.40;;;35.30;71.30;;;;;;5077630;28;20544;-83
2021/07/18 11:39:16;;;;;;;1.85;1.20;;;35.30;71.10;;;;;;5079085;28;20031;-82
2021/07/18 11:41:44;;;;;;;2.70;1.60;;;35.40;71.00;;;;;;5079564;28;20024;-82
2021/07/18 11:44:11;;;;;;;3.13;1.90;;;35.50;70.00;;;;;;5080863;28;20742;-82
2021/07/18 11:46:42;;;;;;;2.97;1.60;;;35.60;70.70;;;;;;5081944;28;20024;-81
2021/07/18 11:49:10;;;;;;;2.20;1.38;;;35.80;69.40;;;;;;5081877;28;20032;-82
2021/07/18 11:51:46;;;;;;;2.40;1.70;;;35.60;68.70;;;;;;5081093;28;20424;-82
2021/07/18 11:54:12;;;;;;;2.72;1.60;;;35.70;67.90;;;;;;5100598;28;20028;-81
2021/07/18 11:56:40;;;;;;;2.13;1.50;;;35.60;67.70;;;;;;5099785;28;20044;-82
2021/07/18 11:59:10;;;;;;;2.97;1.33;;;35.70;68.20;;;;;;5082578;28;20050;-79
2021/07/18 12:01:51;;;;;;;2.70;1.70;;;36.00;69.00;;;;;;5081961;28;20032;-80
2021/07/18 12:04:25;;;;;;;3.67;1.88;;;36.10;67.50;;;;;;5087868;28;20039;-78
2021/07/18 12:06:54;;;;;;;3.20;1.50;;;36.00;67.20;;;;;;5107024;28;20022;-79
2021/07/18 12:09:24;;;;;;;2.13;1.50;;;36.00;68.20;;;;;;5105808;28;20016;-82
2021/07/18 12:11:55;;;;;;;2.97;1.63;;;36.30;68.90;;;;;;5086828;28;20032;-82
2021/07/18 12:14:26;;;;;;;2.00;1.60;;;36.30;66.80;;;;;;5092513;28;20566;-83
2021/07/18 12:16:54;;;;;;;3.78;1.60;;;36.20;65.90;;;;;;5076549;28;20042;-82
2021/07/18 12:19:24;;;;;;;2.35;1.70;;;35.90;65.60;;;;;;5075277;28;20380;-82
2021/07/18 12:21:52;;;;;;;3.20;1.83;;;35.80;66.30;;;;;;5091465;28;20059;-83
2021/07/18 12:24:31;;;;;;;3.08;1.80;;;36.00;66.50;;;;;;5092228;28;20031;-82
2021/07/18 12:27:04;;;;;;;2.85;1.65;;;36.10;66.40;;;;;;5095532;28;20391;-82
2021/07/18 12:29:34;;;;;;;2.13;1.60;;;36.20;66.60;;;;;;5095924;28;20028;-81
2021/07/18 12:32:03;;;;;;;3.28;1.80;;;36.30;65.90;;;;;;5097323;28;20035;-82
2021/07/18 12:34:35;;;;;;;2.28;1.60;;;36.00;65.70;;;;;;5106021;28;20070;-81
2021/07/18 12:37:11;;;;;;;1.67;1.42;;;36.10;66.50;;;;;;5083911;28;20060;-82
2021/07/18 12:39:47;;;;;;;2.15;1.52;;;36.40;66.00;;;;;;5095329;28;20024;-81
2021/07/18 12:42:31;;;;;;;3.17;1.95;;;36.90;66.10;;;;;;5091792;28;20365;-81
2021/07/18 12:45:11;;;;;;;2.92;2.17;;;37.10;64.00;;;;;;5095891;28;20020;-82
2021/07/18 12:47:44;;;;;;;3.40;1.92;;;36.50;63.00;;;;;;5078096;28;20058;-83
2021/07/18 12:50:30;;;;;;;3.42;1.95;;;36.20;63.80;;;;;;5077091;28;20039;-83
2021/07/18 12:53:10;;;;;;;3.15;1.60;;;36.10;63.20;;;;;;5077414;28;20036;-83
2021/07/18 12:55:58;;;;;;;3.05;1.88;;;36.00;63.40;;;;;;5076954;28;20032;-82